sensor_id;sensor_type;location;lat;lon;timestamp;P1;durP1;ratioP1;P2;durP2;ratioP2
74707;SDS011;63360;50.104;8.074;2023-06-24T00:02:24;6.60;;;4.20;;
74707;SDS011;63360;50.104;8.074;2023-06-24T00:04:51;6.33;;;3.80;;
74707;SDS011;63360;50.104;8.074;2023-06-24T00:07:18;6.57;;;4.05;;
74707;SDS011;63360;50.104;8.074;2023-06-24T00:09:48;6.03;;;3.85;;
74707;SDS011;63360;50.104;8.074;2023-06-24T00:12:14;6.25;;;3.97;;
74707;SDS011;63360;50.104;8.074;2023-06-24T00:14:48;6.38;;;4.10;;
74707;SDS011;63360;50.104;8.074;2023-06-24T00:17:16;5.33;;;3.63;;
74707;SDS011;63360;50.104;8.074;2023-06-24T00:19:43;5.85;;;4.00;;
74707;SDS011;63360;50.104;8.074;2023-06-24T00:22:12;6.80;;;4.00;;
74707;SDS011;63360;50.104;8.074;2023-06-24T00:24:41;6.97;;;3.97;;
74707;SDS011;63360;50.104;8.074;2023-06-24T00:27:09;6.72;;;3.97;;
74707;SDS011;63360;50.104;8.074;2023-06-24T00:29:35;6.63;;;4.10;;
74707;SDS011;63360;50.104;8.074;2023-06-24T00:32:02;6.68;;;4.43;;
74707;SDS011;63360;50.104;8.074;2023-06-24T00:34:28;6.72;;;4.20;;
74707;SDS011;63360;50.104;8.074;2023-06-24T00:36:55;6.50;;;4.40;;
74707;SDS011;63360;50.104;8.074;2023-06-24T00:39:21;6.00;;;4.25;;
74707;SDS011;63360;50.104;8.074;2023-06-24T00:41:48;6.83;;;4.03;;
74707;SDS011;63360;50.104;8.074;2023-06-24T00:44:15;6.78;;;4.15;;
74707;SDS011;63360;50.104;8.074;2023-06-24T00:46:42;6.85;;;4.45;;
74707;SDS011;63360;50.104;8.074;2023-06-24T00:49:08;7.18;;;3.70;;
74707;SDS011;63360;50.104;8.074;2023-06-24T00:51:36;7.20;;;3.75;;
74707;SDS011;63360;50.104;8.074;2023-06-24T00:54:02;7.30;;;4.03;;
74707;SDS011;63360;50.104;8.074;2023-06-24T00:56:34;5.82;;;4.10;;
74707;SDS011;63360;50.104;8.074;2023-06-24T00:59:04;8.48;;;4.20;;
74707;SDS011;63360;50.104;8.074;2023-06-24T01:01:34;6.72;;;4.30;;
74707;SDS011;63360;50.104;8.074;2023-06-24T01:04:04;5.60;;;3.80;;
74707;SDS011;63360;50.104;8.074;2023-06-24T01:06:34;5.90;;;3.90;;
74707;SDS011;63360;50.104;8.074;2023-06-24T01:09:02;5.05;;;3.55;;
74707;SDS011;63360;50.104;8.074;2023-06-24T01:11:31;7.57;;;3.88;;
74707;SDS011;63360;50.104;8.074;2023-06-24T01:13:57;6.13;;;4.00;;
74707;SDS011;63360;50.104;8.074;2023-06-24T01:21:42;7.10;;;3.38;;
74707;SDS011;63360;50.104;8.074;2023-06-24T01:27:29;5.97;;;3.92;;
74707;SDS011;63360;50.104;8.074;2023-06-24T01:30:15;6.28;;;3.97;;
74707;SDS011;63360;50.104;8.074;2023-06-24T01:33:25;8.43;;;4.03;;
74707;SDS011;63360;50.104;8.074;2023-06-24T01:35:58;5.65;;;3.88;;
74707;SDS011;63360;50.104;8.074;2023-06-24T01:38:42;5.60;;;3.83;;
74707;SDS011;63360;50.104;8.074;2023-06-24T01:41:13;5.88;;;3.80;;
74707;SDS011;63360;50.104;8.074;2023-06-24T01:43:42;5.72;;;3.60;;
74707;SDS011;63360;50.104;8.074;2023-06-24T01:46:09;5.70;;;3.77;;
74707;SDS011;63360;50.104;8.074;2023-06-24T01:48:38;7.50;;;3.85;;
74707;SDS011;63360;50.104;8.074;2023-06-24T01:51:09;5.18;;;3.75;;
74707;SDS011;63360;50.104;8.074;2023-06-24T01:53:39;6.07;;;3.85;;
74707;SDS011;63360;50.104;8.074;2023-06-24T01:56:10;7.40;;;3.65;;
74707;SDS011;63360;50.104;8.074;2023-06-24T01:58:40;5.60;;;3.70;;
74707;SDS011;63360;50.104;8.074;2023-06-24T02:01:09;5.38;;;3.70;;
74707;SDS011;63360;50.104;8.074;2023-06-24T02:03:37;6.35;;;4.03;;
74707;SDS011;63360;50.104;8.074;2023-06-24T02:06:06;6.82;;;3.83;;
74707;SDS011;63360;50.104;8.074;2023-06-24T02:08:35;6.05;;;3.70;;
74707;SDS011;63360;50.104;8.074;2023-06-24T02:11:04;5.80;;;3.67;;
74707;SDS011;63360;50.104;8.074;2023-06-24T02:13:32;6.00;;;4.07;;
74707;SDS011;63360;50.104;8.074;2023-06-24T02:16:02;7.40;;;3.88;;
74707;SDS011;63360;50.104;8.074;2023-06-24T02:18:33;7.10;;;3.90;;
74707;SDS011;63360;50.104;8.074;2023-06-24T02:21:01;7.90;;;3.80;;
74707;SDS011;63360;50.104;8.074;2023-06-24T02:23:29;8.57;;;3.83;;
74707;SDS011;63360;50.104;8.074;2023-06-24T02:25:57;6.80;;;4.28;;
74707;SDS011;63360;50.104;8.074;2023-06-24T02:28:25;5.97;;;3.88;;
74707;SDS011;63360;50.104;8.074;2023-06-24T02:30:52;6.47;;;3.95;;
74707;SDS011;63360;50.104;8.074;2023-06-24T02:33:20;6.07;;;4.05;;
74707;SDS011;63360;50.104;8.074;2023-06-24T02:35:47;5.60;;;3.87;;
74707;SDS011;63360;50.104;8.074;2023-06-24T02:38:13;8.07;;;4.20;;
74707;SDS011;63360;50.104;8.074;2023-06-24T02:40:40;6.72;;;4.38;;
74707;SDS011;63360;50.104;8.074;2023-06-24T02:43:08;6.30;;;4.18;;
74707;SDS011;63360;50.104;8.074;2023-06-24T02:45:35;6.60;;;3.47;;
74707;SDS011;63360;50.104;8.074;2023-06-24T02:48:01;7.50;;;4.10;;
74707;SDS011;63360;50.104;8.074;2023-06-24T02:50:29;6.35;;;4.20;;
74707;SDS011;63360;50.104;8.074;2023-06-24T02:52:56;6.10;;;4.10;;
74707;SDS011;63360;50.104;8.074;2023-06-24T02:55:23;6.93;;;4.35;;
74707;SDS011;63360;50.104;8.074;2023-06-24T02:57:50;6.88;;;4.50;;
74707;SDS011;63360;50.104;8.074;2023-06-24T03:00:17;7.23;;;4.43;;
74707;SDS011;63360;50.104;8.074;2023-06-24T03:02:44;7.03;;;4.38;;
74707;SDS011;63360;50.104;8.074;2023-06-24T03:05:12;7.35;;;4.20;;
74707;SDS011;63360;50.104;8.074;2023-06-24T03:07:39;7.97;;;4.70;;
74707;SDS011;63360;50.104;8.074;2023-06-24T03:10:06;6.90;;;4.43;;
74707;SDS011;63360;50.104;8.074;2023-06-24T03:12:33;7.40;;;4.40;;
74707;SDS011;63360;50.104;8.074;2023-06-24T03:14:59;5.90;;;3.92;;
74707;SDS011;63360;50.104;8.074;2023-06-24T03:17:29;7.07;;;3.97;;
74707;SDS011;63360;50.104;8.074;2023-06-24T03:19:56;7.72;;;4.38;;
74707;SDS011;63360;50.104;8.074;2023-06-24T03:22:24;6.55;;;4.07;;
74707;SDS011;63360;50.104;8.074;2023-06-24T03:24:50;6.10;;;3.70;;
74707;SDS011;63360;50.104;8.074;2023-06-24T03:27:19;7.20;;;4.20;;
74707;SDS011;63360;50.104;8.074;2023-06-24T03:29:45;6.72;;;3.90;;
74707;SDS011;63360;50.104;8.074;2023-06-24T03:32:11;7.25;;;4.10;;
74707;SDS011;63360;50.104;8.074;2023-06-24T03:34:38;6.20;;;4.00;;
74707;SDS011;63360;50.104;8.074;2023-06-24T03:37:04;6.73;;;3.70;;
74707;SDS011;63360;50.104;8.074;2023-06-24T03:39:31;6.13;;;4.00;;
74707;SDS011;63360;50.104;8.074;2023-06-24T03:41:57;6.10;;;3.90;;
74707;SDS011;63360;50.104;8.074;2023-06-24T03:44:24;6.25;;;3.75;;
74707;SDS011;63360;50.104;8.074;2023-06-24T03:46:50;7.53;;;4.15;;
74707;SDS011;63360;50.104;8.074;2023-06-24T03:49:17;5.33;;;3.70;;
74707;SDS011;63360;50.104;8.074;2023-06-24T03:51:44;5.70;;;3.58;;
74707;SDS011;63360;50.104;8.074;2023-06-24T03:54:10;7.65;;;3.72;;
74707;SDS011;63360;50.104;8.074;2023-06-24T03:56:37;5.55;;;3.75;;
74707;SDS011;63360;50.104;8.074;2023-06-24T03:59:04;6.22;;;3.90;;
74707;SDS011;63360;50.104;8.074;2023-06-24T04:01:32;5.70;;;3.50;;
74707;SDS011;63360;50.104;8.074;2023-06-24T04:03:58;6.38;;;4.22;;
74707;SDS011;63360;50.104;8.074;2023-06-24T04:06:25;6.65;;;3.55;;
74707;SDS011;63360;50.104;8.074;2023-06-24T04:08:51;6.10;;;3.53;;
74707;SDS011;63360;50.104;8.074;2023-06-24T04:11:18;6.35;;;3.47;;
74707;SDS011;63360;50.104;8.074;2023-06-24T04:13:45;6.37;;;3.40;;
74707;SDS011;63360;50.104;8.074;2023-06-24T04:16:11;7.50;;;3.40;;
74707;SDS011;63360;50.104;8.074;2023-06-24T04:18:38;5.40;;;3.58;;
74707;SDS011;63360;50.104;8.074;2023-06-24T04:21:06;5.72;;;3.50;;
74707;SDS011;63360;50.104;8.074;2023-06-24T04:23:33;5.50;;;3.58;;
74707;SDS011;63360;50.104;8.074;2023-06-24T04:25:59;5.53;;;3.73;;
74707;SDS011;63360;50.104;8.074;2023-06-24T04:28:26;4.97;;;3.40;;
74707;SDS011;63360;50.104;8.074;2023-06-24T04:30:53;5.35;;;3.47;;
74707;SDS011;63360;50.104;8.074;2023-06-24T04:33:20;6.60;;;3.85;;
74707;SDS011;63360;50.104;8.074;2023-06-24T04:35:46;5.88;;;3.50;;
74707;SDS011;63360;50.104;8.074;2023-06-24T04:38:13;7.07;;;3.63;;
74707;SDS011;63360;50.104;8.074;2023-06-24T04:40:44;4.80;;;3.50;;
74707;SDS011;63360;50.104;8.074;2023-06-24T04:43:11;6.05;;;3.88;;
74707;SDS011;63360;50.104;8.074;2023-06-24T04:45:37;6.03;;;3.88;;
74707;SDS011;63360;50.104;8.074;2023-06-24T04:48:04;5.35;;;3.63;;
74707;SDS011;63360;50.104;8.074;2023-06-24T04:50:31;5.37;;;3.53;;
74707;SDS011;63360;50.104;8.074;2023-06-24T04:52:57;5.90;;;3.70;;
74707;SDS011;63360;50.104;8.074;2023-06-24T04:55:24;5.07;;;3.80;;
74707;SDS011;63360;50.104;8.074;2023-06-24T04:57:50;5.13;;;3.50;;
74707;SDS011;63360;50.104;8.074;2023-06-24T05:00:17;5.30;;;3.63;;
74707;SDS011;63360;50.104;8.074;2023-06-24T05:02:43;6.20;;;3.97;;
74707;SDS011;63360;50.104;8.074;2023-06-24T05:05:11;5.68;;;4.03;;
74707;SDS011;63360;50.104;8.074;2023-06-24T05:07:38;5.80;;;3.60;;
74707;SDS011;63360;50.104;8.074;2023-06-24T05:10:05;5.15;;;3.22;;
74707;SDS011;63360;50.104;8.074;2023-06-24T05:12:32;6.00;;;3.85;;
74707;SDS011;63360;50.104;8.074;2023-06-24T05:14:58;6.33;;;3.67;;
74707;SDS011;63360;50.104;8.074;2023-06-24T05:17:25;5.18;;;3.33;;
74707;SDS011;63360;50.104;8.074;2023-06-24T05:19:51;6.13;;;3.65;;
74707;SDS011;63360;50.104;8.074;2023-06-24T05:22:18;4.50;;;3.40;;
74707;SDS011;63360;50.104;8.074;2023-06-24T05:24:44;5.28;;;3.60;;
74707;SDS011;63360;50.104;8.074;2023-06-24T05:27:11;4.47;;;3.50;;
74707;SDS011;63360;50.104;8.074;2023-06-24T05:29:37;5.63;;;3.20;;
74707;SDS011;63360;50.104;8.074;2023-06-24T05:32:04;5.68;;;3.47;;
74707;SDS011;63360;50.104;8.074;2023-06-24T05:34:31;7.28;;;3.80;;
74707;SDS011;63360;50.104;8.074;2023-06-24T05:36:57;4.90;;;3.47;;
74707;SDS011;63360;50.104;8.074;2023-06-24T05:39:24;5.30;;;3.20;;
74707;SDS011;63360;50.104;8.074;2023-06-24T05:41:50;6.07;;;3.75;;
74707;SDS011;63360;50.104;8.074;2023-06-24T05:44:17;5.75;;;4.00;;
74707;SDS011;63360;50.104;8.074;2023-06-24T05:46:44;5.28;;;3.30;;
74707;SDS011;63360;50.104;8.074;2023-06-24T05:49:11;5.18;;;3.58;;
74707;SDS011;63360;50.104;8.074;2023-06-24T05:51:38;4.93;;;3.63;;
74707;SDS011;63360;50.104;8.074;2023-06-24T05:54:04;5.40;;;3.22;;
74707;SDS011;63360;50.104;8.074;2023-06-24T05:56:31;5.88;;;3.65;;
74707;SDS011;63360;50.104;8.074;2023-06-24T05:58:58;4.72;;;3.13;;
74707;SDS011;63360;50.104;8.074;2023-06-24T06:01:25;4.60;;;3.55;;
74707;SDS011;63360;50.104;8.074;2023-06-24T06:03:51;4.77;;;3.40;;
74707;SDS011;63360;50.104;8.074;2023-06-24T06:06:18;7.07;;;3.28;;
74707;SDS011;63360;50.104;8.074;2023-06-24T06:08:44;5.28;;;2.90;;
74707;SDS011;63360;50.104;8.074;2023-06-24T06:11:11;4.32;;;3.03;;
74707;SDS011;63360;50.104;8.074;2023-06-24T06:13:37;4.53;;;2.88;;
74707;SDS011;63360;50.104;8.074;2023-06-24T06:16:04;4.57;;;3.17;;
74707;SDS011;63360;50.104;8.074;2023-06-24T06:18:30;4.55;;;3.30;;
74707;SDS011;63360;50.104;8.074;2023-06-24T06:20:57;4.32;;;3.20;;
74707;SDS011;63360;50.104;8.074;2023-06-24T06:23:23;4.57;;;2.80;;
74707;SDS011;63360;50.104;8.074;2023-06-24T06:25:50;4.45;;;3.10;;
74707;SDS011;63360;50.104;8.074;2023-06-24T06:28:16;5.47;;;3.30;;
74707;SDS011;63360;50.104;8.074;2023-06-24T06:30:43;5.75;;;3.25;;
74707;SDS011;63360;50.104;8.074;2023-06-24T06:33:09;4.43;;;3.00;;
74707;SDS011;63360;50.104;8.074;2023-06-24T06:35:36;5.60;;;3.13;;
74707;SDS011;63360;50.104;8.074;2023-06-24T06:38:02;4.85;;;2.80;;
74707;SDS011;63360;50.104;8.074;2023-06-24T06:40:29;4.30;;;3.13;;
74707;SDS011;63360;50.104;8.074;2023-06-24T06:42:55;5.53;;;3.40;;
74707;SDS011;63360;50.104;8.074;2023-06-24T06:45:22;4.20;;;3.00;;
74707;SDS011;63360;50.104;8.074;2023-06-24T06:47:49;5.38;;;3.25;;
74707;SDS011;63360;50.104;8.074;2023-06-24T06:50:16;4.20;;;3.05;;
74707;SDS011;63360;50.104;8.074;2023-06-24T06:52:42;5.87;;;2.90;;
74707;SDS011;63360;50.104;8.074;2023-06-24T06:55:09;4.13;;;3.10;;
74707;SDS011;63360;50.104;8.074;2023-06-24T06:57:35;4.40;;;3.00;;
74707;SDS011;63360;50.104;8.074;2023-06-24T07:00:02;5.60;;;3.30;;
74707;SDS011;63360;50.104;8.074;2023-06-24T07:02:30;4.13;;;3.10;;
74707;SDS011;63360;50.104;8.074;2023-06-24T07:04:56;5.40;;;3.10;;
74707;SDS011;63360;50.104;8.074;2023-06-24T07:07:22;5.05;;;3.20;;
74707;SDS011;63360;50.104;8.074;2023-06-24T07:09:49;3.83;;;2.78;;
74707;SDS011;63360;50.104;8.074;2023-06-24T07:12:16;4.28;;;3.28;;
74707;SDS011;63360;50.104;8.074;2023-06-24T07:14:42;5.68;;;3.38;;
74707;SDS011;63360;50.104;8.074;2023-06-24T07:17:08;4.07;;;2.93;;
74707;SDS011;63360;50.104;8.074;2023-06-24T07:19:35;3.55;;;2.80;;
74707;SDS011;63360;50.104;8.074;2023-06-24T07:22:01;5.38;;;3.30;;
74707;SDS011;63360;50.104;8.074;2023-06-24T07:24:28;4.32;;;2.90;;
74707;SDS011;63360;50.104;8.074;2023-06-24T07:26:54;3.58;;;2.85;;
74707;SDS011;63360;50.104;8.074;2023-06-24T07:29:21;4.43;;;3.10;;
74707;SDS011;63360;50.104;8.074;2023-06-24T07:31:47;3.50;;;2.88;;
74707;SDS011;63360;50.104;8.074;2023-06-24T07:34:14;4.40;;;2.88;;
74707;SDS011;63360;50.104;8.074;2023-06-24T07:36:40;4.82;;;3.20;;
74707;SDS011;63360;50.104;8.074;2023-06-24T07:39:06;4.00;;;2.88;;
74707;SDS011;63360;50.104;8.074;2023-06-24T07:41:33;4.03;;;2.87;;
74707;SDS011;63360;50.104;8.074;2023-06-24T07:43:59;5.03;;;2.95;;
74707;SDS011;63360;50.104;8.074;2023-06-24T07:46:26;5.30;;;3.08;;
74707;SDS011;63360;50.104;8.074;2023-06-24T07:48:54;4.28;;;3.40;;
74707;SDS011;63360;50.104;8.074;2023-06-24T07:51:21;3.90;;;2.80;;
74707;SDS011;63360;50.104;8.074;2023-06-24T07:53:48;4.23;;;2.90;;
74707;SDS011;63360;50.104;8.074;2023-06-24T07:56:14;4.18;;;2.80;;
74707;SDS011;63360;50.104;8.074;2023-06-24T07:58:41;4.82;;;3.30;;
74707;SDS011;63360;50.104;8.074;2023-06-24T08:01:07;4.85;;;3.13;;
74707;SDS011;63360;50.104;8.074;2023-06-24T08:03:34;6.65;;;3.05;;
74707;SDS011;63360;50.104;8.074;2023-06-24T08:06:00;5.03;;;3.43;;
74707;SDS011;63360;50.104;8.074;2023-06-24T08:08:27;6.07;;;2.90;;
74707;SDS011;63360;50.104;8.074;2023-06-24T08:10:53;5.53;;;2.75;;
74707;SDS011;63360;50.104;8.074;2023-06-24T08:13:20;4.80;;;2.90;;
74707;SDS011;63360;50.104;8.074;2023-06-24T08:15:46;4.38;;;2.97;;
74707;SDS011;63360;50.104;8.074;2023-06-24T08:18:13;3.90;;;3.03;;
74707;SDS011;63360;50.104;8.074;2023-06-24T08:20:39;5.25;;;3.33;;
74707;SDS011;63360;50.104;8.074;2023-06-24T08:23:06;5.88;;;3.20;;
74707;SDS011;63360;50.104;8.074;2023-06-24T08:25:32;4.95;;;3.10;;
74707;SDS011;63360;50.104;8.074;2023-06-24T08:27:59;5.25;;;3.10;;
74707;SDS011;63360;50.104;8.074;2023-06-24T08:30:26;6.63;;;3.93;;
74707;SDS011;63360;50.104;8.074;2023-06-24T08:32:52;4.35;;;3.00;;
74707;SDS011;63360;50.104;8.074;2023-06-24T08:35:19;5.45;;;3.58;;
74707;SDS011;63360;50.104;8.074;2023-06-24T08:37:45;5.88;;;3.30;;
74707;SDS011;63360;50.104;8.074;2023-06-24T08:40:12;6.15;;;3.90;;
74707;SDS011;63360;50.104;8.074;2023-06-24T08:42:38;5.23;;;3.63;;
74707;SDS011;63360;50.104;8.074;2023-06-24T08:45:05;5.75;;;3.28;;
74707;SDS011;63360;50.104;8.074;2023-06-24T08:47:32;4.60;;;3.38;;
74707;SDS011;63360;50.104;8.074;2023-06-24T08:50:08;5.10;;;3.70;;
74707;SDS011;63360;50.104;8.074;2023-06-24T08:52:38;5.70;;;3.88;;
74707;SDS011;63360;50.104;8.074;2023-06-24T08:55:10;5.73;;;3.80;;
74707;SDS011;63360;50.104;8.074;2023-06-24T08:57:39;6.38;;;3.60;;
74707;SDS011;63360;50.104;8.074;2023-06-24T09:00:06;5.78;;;4.45;;
74707;SDS011;63360;50.104;8.074;2023-06-24T09:02:36;6.03;;;3.90;;
74707;SDS011;63360;50.104;8.074;2023-06-24T09:05:05;6.15;;;4.03;;
74707;SDS011;63360;50.104;8.074;2023-06-24T09:07:32;5.83;;;3.67;;
74707;SDS011;63360;50.104;8.074;2023-06-24T09:09:58;4.57;;;3.40;;
74707;SDS011;63360;50.104;8.074;2023-06-24T09:12:26;6.65;;;4.10;;
74707;SDS011;63360;50.104;8.074;2023-06-24T09:14:53;6.32;;;4.10;;
74707;SDS011;63360;50.104;8.074;2023-06-24T09:17:19;7.28;;;3.88;;
74707;SDS011;63360;50.104;8.074;2023-06-24T09:19:49;5.40;;;3.87;;
74707;SDS011;63360;50.104;8.074;2023-06-24T09:22:16;6.45;;;3.75;;
74707;SDS011;63360;50.104;8.074;2023-06-24T09:24:45;5.63;;;3.95;;
74707;SDS011;63360;50.104;8.074;2023-06-24T09:27:13;6.75;;;3.78;;
74707;SDS011;63360;50.104;8.074;2023-06-24T09:29:41;5.22;;;3.55;;
74707;SDS011;63360;50.104;8.074;2023-06-24T09:32:09;5.63;;;3.50;;
74707;SDS011;63360;50.104;8.074;2023-06-24T09:34:36;6.75;;;3.78;;
74707;SDS011;63360;50.104;8.074;2023-06-24T09:37:03;5.88;;;3.90;;
74707;SDS011;63360;50.104;8.074;2023-06-24T09:39:34;5.85;;;3.70;;
74707;SDS011;63360;50.104;8.074;2023-06-24T09:42:03;5.55;;;3.63;;
74707;SDS011;63360;50.104;8.074;2023-06-24T09:44:31;5.00;;;3.77;;
74707;SDS011;63360;50.104;8.074;2023-06-24T09:46:57;5.00;;;3.78;;
74707;SDS011;63360;50.104;8.074;2023-06-24T09:49:24;5.60;;;3.70;;
74707;SDS011;63360;50.104;8.074;2023-06-24T09:52:00;5.97;;;3.83;;
74707;SDS011;63360;50.104;8.074;2023-06-24T09:54:29;5.28;;;3.72;;
74707;SDS011;63360;50.104;8.074;2023-06-24T09:57:01;4.43;;;3.53;;
74707;SDS011;63360;50.104;8.074;2023-06-24T09:59:29;5.63;;;3.75;;
74707;SDS011;63360;50.104;8.074;2023-06-24T10:01:56;6.28;;;3.72;;
74707;SDS011;63360;50.104;8.074;2023-06-24T10:04:24;4.90;;;3.63;;
74707;SDS011;63360;50.104;8.074;2023-06-24T10:06:52;7.43;;;3.75;;
74707;SDS011;63360;50.104;8.074;2023-06-24T10:09:19;5.83;;;3.70;;
74707;SDS011;63360;50.104;8.074;2023-06-24T10:11:46;5.53;;;4.10;;
74707;SDS011;63360;50.104;8.074;2023-06-24T10:14:14;5.93;;;4.22;;
74707;SDS011;63360;50.104;8.074;2023-06-24T10:16:41;6.82;;;3.92;;
74707;SDS011;63360;50.104;8.074;2023-06-24T10:19:09;5.78;;;3.80;;
74707;SDS011;63360;50.104;8.074;2023-06-24T10:24:12;5.70;;;4.22;;
74707;SDS011;63360;50.104;8.074;2023-06-24T10:26:39;7.13;;;4.43;;
74707;SDS011;63360;50.104;8.074;2023-06-24T10:39:40;5.57;;;3.75;;
74707;SDS011;63360;50.104;8.074;2023-06-24T10:42:25;5.80;;;4.00;;
74707;SDS011;63360;50.104;8.074;2023-06-24T10:50:03;5.68;;;4.10;;
74707;SDS011;63360;50.104;8.074;2023-06-24T10:52:29;5.60;;;4.28;;
74707;SDS011;63360;50.104;8.074;2023-06-24T10:54:56;6.53;;;3.80;;
74707;SDS011;63360;50.104;8.074;2023-06-24T10:57:27;5.13;;;3.88;;
74707;SDS011;63360;50.104;8.074;2023-06-24T10:59:54;5.47;;;4.30;;
74707;SDS011;63360;50.104;8.074;2023-06-24T11:02:23;5.78;;;4.05;;
74707;SDS011;63360;50.104;8.074;2023-06-24T11:04:51;5.63;;;4.22;;
74707;SDS011;63360;50.104;8.074;2023-06-24T11:07:20;6.53;;;4.43;;
74707;SDS011;63360;50.104;8.074;2023-06-24T11:09:49;6.13;;;4.57;;
74707;SDS011;63360;50.104;8.074;2023-06-24T11:12:27;4.97;;;3.50;;
74707;SDS011;63360;50.104;8.074;2023-06-24T11:14:56;5.80;;;4.00;;
74707;SDS011;63360;50.104;8.074;2023-06-24T11:17:24;5.35;;;3.97;;
74707;SDS011;63360;50.104;8.074;2023-06-24T11:19:55;5.93;;;4.10;;
74707;SDS011;63360;50.104;8.074;2023-06-24T11:22:23;6.70;;;4.28;;
74707;SDS011;63360;50.104;8.074;2023-06-24T11:24:50;6.77;;;4.07;;
74707;SDS011;63360;50.104;8.074;2023-06-24T11:27:23;6.15;;;4.00;;
74707;SDS011;63360;50.104;8.074;2023-06-24T11:29:57;6.65;;;4.43;;
74707;SDS011;63360;50.104;8.074;2023-06-24T11:32:40;7.40;;;4.10;;
74707;SDS011;63360;50.104;8.074;2023-06-24T11:35:09;5.47;;;3.80;;
74707;SDS011;63360;50.104;8.074;2023-06-24T11:37:37;6.03;;;4.30;;
74707;SDS011;63360;50.104;8.074;2023-06-24T11:40:07;5.22;;;3.75;;
74707;SDS011;63360;50.104;8.074;2023-06-24T11:42:41;6.07;;;3.92;;
74707;SDS011;63360;50.104;8.074;2023-06-24T11:45:11;5.80;;;3.92;;
74707;SDS011;63360;50.104;8.074;2023-06-24T11:47:41;5.22;;;3.80;;
74707;SDS011;63360;50.104;8.074;2023-06-24T11:50:08;6.10;;;3.77;;
74707;SDS011;63360;50.104;8.074;2023-06-24T11:55:02;5.03;;;3.83;;
74707;SDS011;63360;50.104;8.074;2023-06-24T11:57:47;7.03;;;4.53;;
74707;SDS011;63360;50.104;8.074;2023-06-24T12:00:16;6.20;;;4.00;;
74707;SDS011;63360;50.104;8.074;2023-06-24T12:02:43;6.53;;;4.10;;
74707;SDS011;63360;50.104;8.074;2023-06-24T12:05:09;5.50;;;4.10;;
74707;SDS011;63360;50.104;8.074;2023-06-24T12:07:36;6.85;;;4.50;;
74707;SDS011;63360;50.104;8.074;2023-06-24T12:10:03;4.80;;;3.60;;
74707;SDS011;63360;50.104;8.074;2023-06-24T12:12:29;6.05;;;3.97;;
74707;SDS011;63360;50.104;8.074;2023-06-24T12:14:56;4.93;;;3.40;;
74707;SDS011;63360;50.104;8.074;2023-06-24T12:17:22;5.25;;;4.15;;
74707;SDS011;63360;50.104;8.074;2023-06-24T12:19:49;4.93;;;3.47;;
74707;SDS011;63360;50.104;8.074;2023-06-24T12:22:15;5.07;;;3.80;;
74707;SDS011;63360;50.104;8.074;2023-06-24T12:24:41;5.47;;;3.83;;
74707;SDS011;63360;50.104;8.074;2023-06-24T12:27:08;6.10;;;4.17;;
74707;SDS011;63360;50.104;8.074;2023-06-24T12:29:35;6.57;;;4.25;;
74707;SDS011;63360;50.104;8.074;2023-06-24T12:32:01;6.97;;;4.43;;
74707;SDS011;63360;50.104;8.074;2023-06-24T12:34:28;7.65;;;4.32;;
74707;SDS011;63360;50.104;8.074;2023-06-24T12:36:54;5.70;;;3.75;;
74707;SDS011;63360;50.104;8.074;2023-06-24T12:39:20;7.23;;;4.03;;
74707;SDS011;63360;50.104;8.074;2023-06-24T12:41:47;6.43;;;4.03;;
74707;SDS011;63360;50.104;8.074;2023-06-24T12:44:13;5.60;;;4.03;;
74707;SDS011;63360;50.104;8.074;2023-06-24T12:46:40;7.32;;;4.05;;
74707;SDS011;63360;50.104;8.074;2023-06-24T12:49:06;5.72;;;4.03;;
74707;SDS011;63360;50.104;8.074;2023-06-24T12:51:33;5.57;;;4.10;;
74707;SDS011;63360;50.104;8.074;2023-06-24T12:53:59;5.72;;;3.85;;
74707;SDS011;63360;50.104;8.074;2023-06-24T12:56:25;5.70;;;4.20;;
74707;SDS011;63360;50.104;8.074;2023-06-24T12:58:52;5.82;;;4.07;;
74707;SDS011;63360;50.104;8.074;2023-06-24T13:01:18;6.22;;;3.90;;
74707;SDS011;63360;50.104;8.074;2023-06-24T13:03:45;6.27;;;4.07;;
74707;SDS011;63360;50.104;8.074;2023-06-24T13:06:11;5.75;;;3.92;;
74707;SDS011;63360;50.104;8.074;2023-06-24T13:08:40;5.47;;;3.83;;
74707;SDS011;63360;50.104;8.074;2023-06-24T13:11:07;5.65;;;3.80;;
74707;SDS011;63360;50.104;8.074;2023-06-24T13:13:34;5.82;;;3.70;;
74707;SDS011;63360;50.104;8.074;2023-06-24T13:16:00;6.53;;;4.10;;
74707;SDS011;63360;50.104;8.074;2023-06-24T13:18:27;5.60;;;3.78;;
74707;SDS011;63360;50.104;8.074;2023-06-24T13:20:53;5.90;;;4.15;;
74707;SDS011;63360;50.104;8.074;2023-06-24T13:23:39;5.82;;;4.05;;
74707;SDS011;63360;50.104;8.074;2023-06-24T13:26:06;6.07;;;3.88;;
74707;SDS011;63360;50.104;8.074;2023-06-24T13:28:32;6.27;;;3.90;;
74707;SDS011;63360;50.104;8.074;2023-06-24T13:30:59;5.65;;;4.00;;
74707;SDS011;63360;50.104;8.074;2023-06-24T13:33:25;5.22;;;3.85;;
74707;SDS011;63360;50.104;8.074;2023-06-24T13:35:52;4.97;;;4.00;;
74707;SDS011;63360;50.104;8.074;2023-06-24T13:38:18;5.53;;;3.72;;
74707;SDS011;63360;50.104;8.074;2023-06-24T13:40:45;4.27;;;3.30;;
74707;SDS011;63360;50.104;8.074;2023-06-24T13:43:11;5.53;;;3.78;;
74707;SDS011;63360;50.104;8.074;2023-06-24T13:45:41;4.32;;;3.22;;
74707;SDS011;63360;50.104;8.074;2023-06-24T13:48:08;5.40;;;3.95;;
74707;SDS011;63360;50.104;8.074;2023-06-24T13:50:34;5.03;;;3.42;;
74707;SDS011;63360;50.104;8.074;2023-06-24T13:53:01;4.97;;;3.97;;
74707;SDS011;63360;50.104;8.074;2023-06-24T13:55:27;5.25;;;3.90;;
74707;SDS011;63360;50.104;8.074;2023-06-24T13:57:54;4.80;;;3.80;;
74707;SDS011;63360;50.104;8.074;2023-06-24T14:00:20;4.90;;;3.80;;
74707;SDS011;63360;50.104;8.074;2023-06-24T14:02:47;4.75;;;3.58;;
74707;SDS011;63360;50.104;8.074;2023-06-24T14:05:13;4.87;;;3.90;;
74707;SDS011;63360;50.104;8.074;2023-06-24T14:07:40;5.78;;;3.95;;
74707;SDS011;63360;50.104;8.074;2023-06-24T14:10:06;5.50;;;4.00;;
74707;SDS011;63360;50.104;8.074;2023-06-24T14:12:33;5.45;;;3.80;;
74707;SDS011;63360;50.104;8.074;2023-06-24T14:15:00;5.22;;;3.95;;
74707;SDS011;63360;50.104;8.074;2023-06-24T14:17:26;4.87;;;3.43;;
74707;SDS011;63360;50.104;8.074;2023-06-24T14:19:53;6.30;;;3.80;;
74707;SDS011;63360;50.104;8.074;2023-06-24T14:22:19;6.15;;;4.05;;
74707;SDS011;63360;50.104;8.074;2023-06-24T14:24:46;4.70;;;3.60;;
74707;SDS011;63360;50.104;8.074;2023-06-24T14:27:13;5.03;;;3.90;;
74707;SDS011;63360;50.104;8.074;2023-06-24T14:29:39;5.40;;;4.00;;
74707;SDS011;63360;50.104;8.074;2023-06-24T14:32:06;5.22;;;3.90;;
74707;SDS011;63360;50.104;8.074;2023-06-24T14:34:32;6.03;;;4.20;;
74707;SDS011;63360;50.104;8.074;2023-06-24T14:36:59;4.75;;;3.65;;
74707;SDS011;63360;50.104;8.074;2023-06-24T14:39:25;4.57;;;3.40;;
74707;SDS011;63360;50.104;8.074;2023-06-24T14:41:55;5.57;;;3.90;;
74707;SDS011;63360;50.104;8.074;2023-06-24T14:44:21;6.07;;;4.03;;
74707;SDS011;63360;50.104;8.074;2023-06-24T14:46:47;7.68;;;4.40;;
74707;SDS011;63360;50.104;8.074;2023-06-24T14:49:14;5.80;;;4.25;;
74707;SDS011;63360;50.104;8.074;2023-06-24T14:51:40;5.60;;;4.57;;
74707;SDS011;63360;50.104;8.074;2023-06-24T14:54:07;6.40;;;4.30;;
74707;SDS011;63360;50.104;8.074;2023-06-24T14:56:33;5.20;;;4.10;;
74707;SDS011;63360;50.104;8.074;2023-06-24T14:59:00;6.80;;;4.75;;
74707;SDS011;63360;50.104;8.074;2023-06-24T15:01:26;4.57;;;3.60;;
74707;SDS011;63360;50.104;8.074;2023-06-24T15:03:53;6.47;;;4.20;;
74707;SDS011;63360;50.104;8.074;2023-06-24T15:06:19;5.30;;;4.10;;
74707;SDS011;63360;50.104;8.074;2023-06-24T15:08:46;6.22;;;4.10;;
74707;SDS011;63360;50.104;8.074;2023-06-24T15:11:12;5.40;;;3.95;;
74707;SDS011;63360;50.104;8.074;2023-06-24T15:13:39;4.80;;;3.75;;
74707;SDS011;63360;50.104;8.074;2023-06-24T15:16:05;6.10;;;3.97;;
74707;SDS011;63360;50.104;8.074;2023-06-24T15:18:32;4.80;;;3.67;;
74707;SDS011;63360;50.104;8.074;2023-06-24T15:20:58;5.05;;;3.92;;